Time,TemperatureF,DewpointF,PressureIn,WindDirection,WindDirectionDegrees,WindSpeedMPH,WindSpeedGustMPH,Humidity,HourlyPrecipIn,Conditions,Clouds,dailyrainin,SoftwareType,DateUTC
2013-03-02 00:00:00,27.3,20.8,29.97,WNW,292,0.0,4.0,76,-99.99,,,0.21,meteohub,2013-03-02 05:00:00,
2013-03-02 00:05:00,27.3,20.8,29.97,WNW,292,0.0,4.0,76,-99.99,,,0.21,meteohub,2013-03-02 05:05:00,
2013-03-02 00:10:00,27.5,21.0,29.97,WNW,292,3.0,3.0,76,-99.99,,,0.21,meteohub,2013-03-02 05:10:00,
2013-03-02 00:15:00,27.5,21.0,29.97,WNW,292,3.0,4.0,76,-99.99,,,0.21,meteohub,2013-03-02 05:15:00,
2013-03-02 00:20:00,27.5,20.7,29.97,NNW,338,8.0,8.0,75,-99.99,,,0.21,meteohub,2013-03-02 05:20:00,
2013-03-02 00:25:00,27.5,20.7,29.97,WNW,292,4.0,8.0,75,-99.99,,,0.21,meteohub,2013-03-02 05:25:00,
2013-03-02 00:30:00,27.5,20.7,29.97,NW,315,4.0,8.0,75,-99.99,,,0.21,meteohub,2013-03-02 05:30:00,
2013-03-02 00:35:00,27.5,21.0,29.97,NW,315,6.0,8.0,76,-99.99,,,0.21,meteohub,2013-03-02 05:35:00,
2013-03-02 00:40:00,27.5,21.0,29.97,WNW,292,5.0,8.0,76,-99.99,,,0.21,meteohub,2013-03-02 05:40:00,
2013-03-02 00:45:00,27.3,21.0,29.97,WNW,292,2.0,8.0,77,-99.99,,,0.21,meteohub,2013-03-02 05:45:00,
2013-03-02 00:50:00,27.1,20.8,29.97,NW,315,5.0,9.0,77,-99.99,,,0.21,meteohub,2013-03-02 05:50:00,
2013-03-02 00:55:00,27.1,20.8,29.97,NNW,338,6.0,9.0,77,-99.99,,,0.21,meteohub,2013-03-02 05:55:00,
2013-03-02 01:00:00,27.0,21.4,29.97,NNW,338,5.0,8.0,79,-99.99,,,0.21,meteohub,2013-03-02 06:00:00,
2013-03-02 01:05:00,27.0,21.4,29.97,WNW,292,4.0,8.0,79,-99.99,,,0.21,meteohub,2013-03-02 06:05:00,
2013-03-02 01:10:00,27.0,21.6,29.97,NW,315,6.0,7.0,80,-99.99,,,0.21,meteohub,2013-03-02 06:10:00,
2013-03-02 01:15:00,27.0,22.5,29.97,ENE,68,3.0,8.0,83,-99.99,,,0.21,meteohub,2013-03-02 06:15:00,
2013-03-02 01:20:00,26.8,22.8,29.98,WNW,292,6.0,8.0,85,-99.99,,,0.21,meteohub,2013-03-02 06:20:00,
2013-03-02 01:25:00,26.8,22.8,29.98,NNW,338,6.0,8.0,85,-99.99,,,0.21,meteohub,2013-03-02 06:25:00,
2013-03-02 01:30:00,26.8,22.3,29.98,NW,315,4.0,8.0,83,-99.99,,,0.21,meteohub,2013-03-02 06:30:00,
2013-03-02 01:35:00,26.8,22.1,29.98,WNW,292,5.0,8.0,82,-99.99,,,0.21,meteohub,2013-03-02 06:35:00,
2013-03-02 01:40:00,26.8,21.4,29.98,NNW,338,9.0,9.0,80,-99.99,,,0.21,meteohub,2013-03-02 06:40:00,
2013-03-02 01:45:00,27.0,21.4,29.97,NW,315,5.0,9.0,79,-99.99,,,0.21,meteohub,2013-03-02 06:45:00,
2013-03-02 01:50:00,27.0,20.7,29.97,WNW,292,4.0,9.0,77,-99.99,,,0.21,meteohub,2013-03-02 06:50:00,
2013-03-02 01:56:00,27.0,20.5,29.97,NNW,338,6.0,9.0,76,-99.99,,,0.21,meteohub,2013-03-02 06:56:00,
2013-03-02 02:01:00,27.1,19.6,29.97,WNW,292,4.0,8.0,73,-99.99,,,0.21,meteohub,2013-03-02 07:01:00,
2013-03-02 02:06:00,27.3,19.6,29.97,NW,315,4.0,9.0,72,-99.99,,,0.21,meteohub,2013-03-02 07:06:00,
2013-03-02 02:11:00,27.3,19.2,29.97,WNW,292,6.0,9.0,71,-99.99,,,0.21,meteohub,2013-03-02 07:11:00,
2013-03-02 02:16:00,27.3,19.2,29.97,WNW,292,6.0,8.0,71,-99.99,,,0.21,meteohub,2013-03-02 07:16:00,
2013-03-02 02:21:00,27.3,19.6,29.97,WNW,292,4.0,6.0,72,-99.99,,,0.21,meteohub,2013-03-02 07:21:00,
2013-03-02 02:26:00,27.1,19.6,29.97,NNW,338,5.0,6.0,73,-99.99,,,0.21,meteohub,2013-03-02 07:26:00,
2013-03-02 02:31:00,27.0,20.1,29.97,NW,315,4.0,6.0,75,-99.99,,,0.21,meteohub,2013-03-02 07:31:00,
2013-03-02 02:36:00,27.0,20.5,29.97,WNW,292,3.0,6.0,76,-99.99,,,0.21,meteohub,2013-03-02 07:36:00,
2013-03-02 02:41:00,26.8,20.8,29.98,WNW,292,7.0,7.0,78,-99.99,,,0.21,meteohub,2013-03-02 07:41:00,
2013-03-02 02:46:00,26.8,20.8,29.94,WNW,292,4.0,8.0,78,-99.99,,,0.21,meteohub,2013-03-02 07:46:00,
2013-03-02 02:51:00,26.6,21.0,29.94,North,0,4.0,8.0,79,-99.99,,,0.21,meteohub,2013-03-02 07:51:00,
2013-03-02 02:56:00,26.6,21.0,29.94,NNW,338,3.0,8.0,79,-99.99,,,0.21,meteohub,2013-03-02 07:56:00,
2013-03-02 03:01:00,26.6,21.0,29.94,WNW,292,4.0,7.0,79,-99.99,,,0.21,meteohub,2013-03-02 08:01:00,
2013-03-02 03:06:00,26.4,21.0,29.94,WNW,292,5.0,6.0,80,-99.99,,,0.21,meteohub,2013-03-02 08:06:00,
2013-03-02 03:11:00,26.4,21.0,29.94,NW,315,5.0,6.0,80,-99.99,,,0.21,meteohub,2013-03-02 08:11:00,
2013-03-02 03:16:00,26.4,21.0,29.94,WNW,292,3.0,7.0,80,-99.99,,,0.21,meteohub,2013-03-02 08:16:00,
2013-03-02 03:21:00,26.4,21.0,29.94,WNW,292,3.0,7.0,80,-99.99,,,0.21,meteohub,2013-03-02 08:21:00,
2013-03-02 03:26:00,26.4,21.0,29.94,WNW,292,3.0,7.0,80,-99.99,,,0.21,meteohub,2013-03-02 08:26:00,
2013-03-02 03:31:00,26.4,21.0,29.94,NW,315,3.0,5.0,80,-99.99,,,0.21,meteohub,2013-03-02 08:31:00,
2013-03-02 03:36:00,26.4,21.0,29.94,WNW,292,0.0,5.0,80,-99.99,,,0.21,meteohub,2013-03-02 08:36:00,
2013-03-02 03:41:00,26.4,21.0,29.94,WNW,292,3.0,4.0,80,-99.99,,,0.21,meteohub,2013-03-02 08:41:00,
2013-03-02 03:46:00,26.4,21.0,29.94,WNW,292,0.0,5.0,80,-99.99,,,0.21,meteohub,2013-03-02 08:46:00,
2013-03-02 03:51:00,26.4,20.8,29.94,WSW,248,0.0,5.0,79,-99.99,,,0.21,meteohub,2013-03-02 08:51:00,
2013-03-02 03:56:00,26.4,20.8,29.94,NW,315,0.0,5.0,79,-99.99,,,0.21,meteohub,2013-03-02 08:56:00,
2013-03-02 04:01:00,26.4,20.8,29.94,NW,315,0.0,0.0,79,-99.99,,,0.21,meteohub,2013-03-02 09:01:00,
2013-03-02 04:06:00,26.4,20.8,29.94,West,270,0.0,4.0,79,-99.99,,,0.21,meteohub,2013-03-02 09:06:00,
2013-03-02 04:11:00,26.4,20.5,29.94,SSE,158,0.0,4.0,78,-99.99,,,0.21,meteohub,2013-03-02 09:11:00,
2013-03-02 04:16:00,26.4,20.5,29.94,WSW,248,0.0,4.0,78,-99.99,,,0.21,meteohub,2013-03-02 09:16:00,
2013-03-02 04:21:00,26.4,20.5,29.94,WSW,248,0.0,0.0,78,-99.99,,,0.21,meteohub,2013-03-02 09:21:00,
2013-03-02 04:26:00,26.4,20.5,29.94,WSW,248,0.0,0.0,78,-99.99,,,0.21,meteohub,2013-03-02 09:26:00,
2013-03-02 04:31:00,26.4,20.5,29.94,WNW,292,0.0,0.0,78,-99.99,,,0.21,meteohub,2013-03-02 09:31:00,
2013-03-02 04:36:00,26.4,20.5,29.94,WNW,292,0.0,0.0,78,-99.99,,,0.21,meteohub,2013-03-02 09:36:00,
2013-03-02 04:41:00,26.4,20.1,29.94,NW,315,0.0,0.0,77,-99.99,,,0.21,meteohub,2013-03-02 09:41:00,
2013-03-02 04:46:00,26.4,20.1,29.94,WNW,292,0.0,2.0,77,-99.99,,,0.21,meteohub,2013-03-02 09:46:00,
2013-03-02 04:51:00,26.6,20.3,29.94,West,270,0.0,2.0,77,-99.99,,,0.21,meteohub,2013-03-02 09:51:00,
2013-03-02 04:56:00,26.6,20.3,29.94,WNW,292,0.0,2.0,77,-99.99,,,0.21,meteohub,2013-03-02 09:56:00,
2013-03-02 05:01:00,26.6,20.3,29.94,WNW,292,0.0,0.0,77,-99.99,,,0.21,meteohub,2013-03-02 10:01:00,
2013-03-02 05:06:00,26.6,20.3,29.94,WNW,292,0.0,1.0,77,-99.99,,,0.21,meteohub,2013-03-02 10:06:00,
2013-03-02 05:11:00,26.6,20.3,29.94,WNW,292,0.0,2.0,77,-99.99,,,0.21,meteohub,2013-03-02 10:11:00,
2013-03-02 05:16:00,26.6,20.3,29.94,SSW,202,0.0,2.0,77,-99.99,,,0.21,meteohub,2013-03-02 10:16:00,
2013-03-02 05:21:00,26.6,20.3,29.94,SSE,158,0.0,2.0,77,-99.99,,,0.21,meteohub,2013-03-02 10:21:00,
2013-03-02 05:26:00,26.6,20.3,29.94,WSW,248,0.0,1.0,77,-99.99,,,0.21,meteohub,2013-03-02 10:26:00,
2013-03-02 05:31:00,26.6,20.3,29.94,South,180,0.0,1.0,77,-99.99,,,0.21,meteohub,2013-03-02 10:31:00,
2013-03-02 05:36:00,26.6,20.3,29.94,SSE,158,0.0,0.0,77,-99.99,,,0.21,meteohub,2013-03-02 10:36:00,
2013-03-02 05:42:00,26.6,20.3,29.94,WSW,248,0.0,0.0,77,-99.99,,,0.21,meteohub,2013-03-02 10:42:00,
2013-03-02 05:47:00,26.6,20.3,29.94,South,180,0.0,0.0,77,-99.99,,,0.21,meteohub,2013-03-02 10:47:00,
2013-03-02 05:52:00,26.6,20.3,29.94,NNW,338,0.0,0.0,77,-99.99,,,0.21,meteohub,2013-03-02 10:52:00,
2013-03-02 05:57:00,26.4,20.1,29.94,WNW,292,0.0,0.0,77,-99.99,,,0.21,meteohub,2013-03-02 10:57:00,
2013-03-02 06:01:00,26.4,20.1,29.94,SSW,202,0.0,1.0,77,-99.99,,,0.21,meteohub,2013-03-02 11:01:00,
2013-03-02 06:07:00,26.2,20.1,29.95,West,270,0.0,1.0,77,-99.99,,,0.21,meteohub,2013-03-02 11:07:00,
2013-03-02 06:12:00,26.2,20.3,29.95,NW,315,0.0,0.0,78,-99.99,,,0.21,meteohub,2013-03-02 11:12:00,
2013-03-02 06:17:00,26.1,20.1,29.95,NW,315,0.0,0.0,78,-99.99,,,0.21,meteohub,2013-03-02 11:17:00,
2013-03-02 06:22:00,26.1,20.1,29.95,NNW,338,0.0,0.0,78,-99.99,,,0.21,meteohub,2013-03-02 11:22:00,
2013-03-02 06:27:00,26.1,20.5,29.95,WNW,292,0.0,0.0,79,-99.99,,,0.21,meteohub,2013-03-02 11:27:00,
2013-03-02 06:32:00,26.1,20.5,29.95,NNW,338,0.0,0.0,79,-99.99,,,0.21,meteohub,2013-03-02 11:32:00,
2013-03-02 06:37:00,26.1,20.8,29.95,NW,315,0.0,0.0,80,-99.99,,,0.21,meteohub,2013-03-02 11:37:00,
2013-03-02 06:42:00,26.1,20.8,29.95,NW,315,0.0,0.0,80,-99.99,,,0.21,meteohub,2013-03-02 11:42:00,
2013-03-02 06:47:00,26.1,20.8,29.95,WNW,292,0.0,0.0,80,-99.99,,,0.21,meteohub,2013-03-02 11:47:00,
2013-03-02 06:52:00,25.9,20.7,29.95,ENE,68,0.0,0.0,80,-99.99,,,0.21,meteohub,2013-03-02 11:52:00,
2013-03-02 06:57:00,26.1,21.0,29.95,WNW,292,0.0,1.0,81,-99.99,,,0.21,meteohub,2013-03-02 11:57:00,
2013-03-02 07:02:00,25.9,20.8,29.95,NNW,338,0.0,1.0,81,-99.99,,,0.21,meteohub,2013-03-02 12:02:00,
2013-03-02 07:07:00,26.1,21.0,29.95,West,270,0.0,1.0,81,-99.99,,,0.21,meteohub,2013-03-02 12:07:00,
2013-03-02 07:12:00,26.1,21.0,29.95,WNW,292,0.0,0.0,81,-99.99,,,0.21,meteohub,2013-03-02 12:12:00,
2013-03-02 07:17:00,26.1,21.4,29.95,NE,45,0.0,0.0,82,-99.99,,,0.21,meteohub,2013-03-02 12:17:00,
2013-03-02 07:22:00,26.1,21.4,29.95,WNW,292,0.0,4.0,82,-99.99,,,0.21,meteohub,2013-03-02 12:22:00,
2013-03-02 07:27:00,26.1,21.4,29.95,WSW,248,0.0,4.0,82,-99.99,,,0.21,meteohub,2013-03-02 12:27:00,
2013-03-02 07:32:00,26.1,21.4,29.95,SE,135,0.0,4.0,82,-99.99,,,0.21,meteohub,2013-03-02 12:32:00,
2013-03-02 07:37:00,26.2,21.6,29.95,SSE,158,0.0,0.0,82,-99.99,,,0.21,meteohub,2013-03-02 12:37:00,
2013-03-02 07:42:00,26.2,21.6,29.95,South,180,0.0,0.0,82,-99.99,,,0.21,meteohub,2013-03-02 12:42:00,
2013-03-02 07:47:00,26.4,21.4,29.98,NNE,22,0.0,0.0,81,-99.99,,,0.21,meteohub,2013-03-02 12:47:00,
2013-03-02 07:52:00,26.4,21.4,29.98,NW,315,0.0,0.0,81,-99.99,,,0.21,meteohub,2013-03-02 12:52:00,
2013-03-02 07:57:00,26.4,21.4,29.98,WNW,292,0.0,0.0,81,-99.99,,,0.21,meteohub,2013-03-02 12:57:00,
2013-03-02 08:02:00,26.6,21.6,29.94,NW,315,4.0,4.0,81,-99.99,,,0.21,meteohub,2013-03-02 13:02:00,
2013-03-02 08:07:00,26.8,21.7,29.94,NW,315,1.0,4.0,81,-99.99,,,0.21,meteohub,2013-03-02 13:07:00,
2013-03-02 08:12:00,26.8,21.7,29.94,NW,315,2.0,4.0,81,-99.99,,,0.21,meteohub,2013-03-02 13:12:00,
2013-03-02 08:17:00,27.0,21.9,29.94,WNW,292,3.0,4.0,81,-99.99,,,0.21,meteohub,2013-03-02 13:17:00,
2013-03-02 08:22:00,27.3,21.9,29.94,NNE,22,2.0,4.0,80,-99.99,,,0.21,meteohub,2013-03-02 13:22:00,
2013-03-02 08:27:00,27.7,22.3,29.94,WNW,292,3.0,5.0,80,-99.99,,,0.21,meteohub,2013-03-02 13:27:00,
2013-03-02 08:32:00,28.0,22.6,29.96,NW,315,0.0,5.0,80,-99.99,,,0.21,meteohub,2013-03-02 13:32:00,
2013-03-02 08:37:00,28.2,22.6,29.96,NNE,22,3.0,3.0,79,-99.99,,,0.21,meteohub,2013-03-02 13:37:00,
2013-03-02 08:42:00,28.4,22.5,29.96,NNE,22,0.0,3.0,78,-99.99,,,0.21,meteohub,2013-03-02 13:42:00,
2013-03-02 08:47:00,28.6,21.4,29.96,NNE,22,0.0,3.0,74,-99.99,,,0.21,meteohub,2013-03-02 13:47:00,
2013-03-02 08:52:00,28.4,19.9,29.96,WNW,292,3.0,4.0,70,-99.99,,,0.21,meteohub,2013-03-02 13:52:00,
2013-03-02 08:57:00,28.6,20.1,29.96,WNW,292,1.0,10.0,70,-99.99,,,0.21,meteohub,2013-03-02 13:57:00,
2013-03-02 09:02:00,28.8,19.9,29.92,West,270,4.0,10.0,69,-99.99,,,0.21,meteohub,2013-03-02 14:02:00,
2013-03-02 09:07:00,28.8,18.5,29.92,WNW,292,2.0,6.0,65,-99.99,,,0.21,meteohub,2013-03-02 14:07:00,
2013-03-02 09:12:00,29.8,19.9,29.91,NW,315,4.0,6.0,66,-99.99,,,0.21,meteohub,2013-03-02 14:12:00,
2013-03-02 09:17:00,30.7,19.6,29.91,WNW,292,5.0,6.0,63,-99.99,,,0.21,meteohub,2013-03-02 14:17:00,
2013-03-02 09:22:00,31.6,20.5,29.90,WNW,292,3.0,5.0,63,-99.99,,,0.21,meteohub,2013-03-02 14:22:00,
2013-03-02 09:27:00,31.5,19.6,29.90,NNW,338,4.0,6.0,61,-99.99,,,0.21,meteohub,2013-03-02 14:27:00,
2013-03-02 09:32:00,30.9,18.3,29.94,WNW,292,4.0,6.0,59,-99.99,,,0.21,meteohub,2013-03-02 14:32:00,
2013-03-02 09:37:00,31.3,19.0,29.94,WNW,292,1.0,6.0,60,-99.99,,,0.21,meteohub,2013-03-02 14:37:00,
2013-03-02 09:42:00,31.1,18.9,29.94,WNW,292,4.0,5.0,60,-99.99,,,0.21,meteohub,2013-03-02 14:42:00,
2013-03-02 09:47:00,31.1,19.9,29.94,NW,315,3.0,4.0,63,-99.99,,,0.21,meteohub,2013-03-02 14:47:00,
2013-03-02 09:52:00,30.9,19.8,29.94,North,0,1.0,6.0,63,-99.99,,,0.21,meteohub,2013-03-02 14:52:00,
2013-03-02 09:57:00,30.4,19.8,29.94,NW,315,1.0,6.0,64,-99.99,,,0.21,meteohub,2013-03-02 14:57:00,
2013-03-02 10:02:00,30.4,20.8,29.91,NW,315,4.0,6.0,67,-99.99,,,0.21,meteohub,2013-03-02 15:02:00,
2013-03-02 10:07:00,30.4,20.8,29.91,WNW,292,4.0,6.0,67,-99.99,,,0.21,meteohub,2013-03-02 15:07:00,
2013-03-02 10:12:00,30.9,21.2,29.91,NW,315,0.0,8.0,67,-99.99,,,0.21,meteohub,2013-03-02 15:12:00,
2013-03-02 10:17:00,31.3,22.3,29.90,WNW,292,2.0,8.0,69,-99.99,,,0.21,meteohub,2013-03-02 15:17:00,
2013-03-02 10:22:00,32.2,23.2,29.89,West,270,4.0,8.0,69,-99.99,,,0.21,meteohub,2013-03-02 15:22:00,
2013-03-02 10:27:00,32.4,22.6,29.89,NW,315,4.0,5.0,67,-99.99,,,0.21,meteohub,2013-03-02 15:27:00,
2013-03-02 10:32:00,32.2,21.7,29.89,WNW,292,3.0,6.0,65,-99.99,,,0.21,meteohub,2013-03-02 15:32:00,
2013-03-02 10:37:00,32.2,21.0,29.89,NW,315,3.0,6.0,63,-99.99,,,0.21,meteohub,2013-03-02 15:37:00,
2013-03-02 10:42:00,31.8,19.9,29.90,NW,315,3.0,6.0,61,-99.99,,,0.21,meteohub,2013-03-02 15:42:00,
2013-03-02 10:47:00,32.0,19.4,29.90,NW,315,4.0,6.0,59,-99.99,,,0.21,meteohub,2013-03-02 15:47:00,
2013-03-02 10:52:00,32.9,21.4,29.89,West,270,4.0,6.0,62,-99.99,,,0.21,meteohub,2013-03-02 15:52:00,
2013-03-02 10:57:00,32.9,21.0,29.89,WNW,292,3.0,6.0,61,-99.99,,,0.21,meteohub,2013-03-02 15:57:00,
2013-03-02 11:02:00,32.9,20.7,29.89,NW,315,4.0,8.0,60,-99.99,,,0.21,meteohub,2013-03-02 16:02:00,
2013-03-02 11:07:00,33.3,20.5,29.88,NW,315,4.0,8.0,59,-99.99,,,0.21,meteohub,2013-03-02 16:07:00,
2013-03-02 11:12:00,33.3,20.1,29.88,NW,315,7.0,9.0,58,-99.99,,,0.21,meteohub,2013-03-02 16:12:00,
2013-03-02 11:17:00,33.3,18.9,29.92,North,0,3.0,9.0,55,-99.99,,,0.21,meteohub,2013-03-02 16:17:00,
2013-03-02 11:22:00,33.3,18.5,29.92,North,0,9.0,9.0,54,-99.99,,,0.21,meteohub,2013-03-02 16:22:00,
2013-03-02 11:27:00,33.6,18.9,29.92,NNW,338,6.0,9.0,54,-99.99,,,0.21,meteohub,2013-03-02 16:27:00,
2013-03-02 11:32:00,33.1,17.8,29.89,NW,315,7.0,9.0,53,-99.99,,,0.21,meteohub,2013-03-02 16:32:00,
2013-03-02 11:37:00,32.7,17.6,29.89,NW,315,9.0,11.0,53,-99.99,,,0.21,meteohub,2013-03-02 16:37:00,
2013-03-02 11:42:00,32.5,17.8,29.89,NW,315,5.0,11.0,54,-99.99,,,0.21,meteohub,2013-03-02 16:42:00,
2013-03-02 11:47:00,32.7,18.0,29.89,WNW,292,5.0,11.0,54,-99.99,,,0.21,meteohub,2013-03-02 16:47:00,
2013-03-02 11:52:00,32.7,18.0,29.89,NW,315,5.0,9.0,54,-99.99,,,0.21,meteohub,2013-03-02 16:52:00,
2013-03-02 11:57:00,32.4,17.2,29.89,North,0,8.0,11.0,53,-99.99,,,0.21,meteohub,2013-03-02 16:57:00,
2013-03-02 12:02:00,32.7,18.0,29.89,NW,315,5.0,11.0,54,-99.99,,,0.21,meteohub,2013-03-02 17:02:00,
2013-03-02 12:07:00,32.2,17.4,29.89,WNW,292,4.0,11.0,54,-99.99,,,0.21,meteohub,2013-03-02 17:07:00,
2013-03-02 12:12:00,32.9,18.1,29.89,NW,315,5.0,9.0,54,-99.99,,,0.21,meteohub,2013-03-02 17:12:00,
2013-03-02 12:17:00,32.7,17.6,29.89,NW,315,4.0,9.0,53,-99.99,,,0.21,meteohub,2013-03-02 17:17:00,
2013-03-02 12:22:00,32.5,17.8,29.89,NNW,338,5.0,11.0,54,-99.99,,,0.21,meteohub,2013-03-02 17:22:00,
2013-03-02 12:27:00,32.5,17.8,29.89,WNW,292,6.0,11.0,54,-99.99,,,0.21,meteohub,2013-03-02 17:27:00,
2013-03-02 12:32:00,32.7,17.6,29.89,WNW,292,7.0,11.0,53,-99.99,,,0.21,meteohub,2013-03-02 17:32:00,
2013-03-02 12:37:00,33.3,18.0,29.88,NW,315,4.0,11.0,53,-99.99,,,0.21,meteohub,2013-03-02 17:37:00,
2013-03-02 12:42:00,33.1,17.8,29.89,WNW,292,3.0,11.0,53,-99.99,,,0.21,meteohub,2013-03-02 17:42:00,
2013-03-02 12:47:00,33.3,17.6,29.88,WNW,292,8.0,8.0,52,-99.99,,,0.21,meteohub,2013-03-02 17:47:00,
2013-03-02 12:52:00,32.9,17.8,29.89,West,270,3.0,8.0,53,-99.99,,,0.21,meteohub,2013-03-02 17:52:00,
2013-03-02 12:57:00,32.5,17.8,29.89,WNW,292,6.0,9.0,54,-99.99,,,0.21,meteohub,2013-03-02 17:57:00,
2013-03-02 13:02:00,32.2,18.0,29.89,WNW,292,4.0,9.0,55,-99.99,,,0.21,meteohub,2013-03-02 18:02:00,
2013-03-02 13:07:00,32.4,18.0,29.89,WNW,292,3.0,9.0,55,-99.99,,,0.21,meteohub,2013-03-02 18:07:00,
2013-03-02 13:12:00,32.0,17.8,29.90,WNW,292,3.0,8.0,55,-99.99,,,0.21,meteohub,2013-03-02 18:12:00,
2013-03-02 13:17:00,32.5,18.1,29.89,WNW,292,3.0,6.0,55,-99.99,,,0.21,meteohub,2013-03-02 18:17:00,
2013-03-02 13:22:00,32.4,17.6,29.89,NW,315,6.0,6.0,54,-99.99,,,0.21,meteohub,2013-03-02 18:22:00,
2013-03-02 13:27:00,32.4,17.6,29.89,NW,315,4.0,7.0,54,-99.99,,,0.21,meteohub,2013-03-02 18:27:00,
2013-03-02 13:32:00,31.6,16.5,29.90,NNW,338,5.0,8.0,53,-99.99,,,0.21,meteohub,2013-03-02 18:32:00,
2013-03-02 13:37:00,32.5,17.4,29.89,NNE,22,10.0,10.0,53,-99.99,,,0.21,meteohub,2013-03-02 18:37:00,
2013-03-02 13:42:00,32.2,16.5,29.89,NW,315,6.0,10.0,52,-99.99,,,0.21,meteohub,2013-03-02 18:42:00,
2013-03-02 13:47:00,31.8,16.2,29.86,NW,315,5.0,11.0,52,-99.99,,,0.21,meteohub,2013-03-02 18:47:00,
2013-03-02 13:52:00,31.1,16.0,29.87,WNW,292,6.0,11.0,53,-99.99,,,0.21,meteohub,2013-03-02 18:52:00,
2013-03-02 13:57:00,30.9,15.8,29.87,NW,315,9.0,9.0,53,-99.99,,,0.21,meteohub,2013-03-02 18:57:00,
2013-03-02 14:02:00,30.7,16.2,29.91,NW,315,6.0,9.0,54,-99.99,,,0.21,meteohub,2013-03-02 19:02:00,
2013-03-02 14:07:00,30.9,16.7,29.91,West,270,10.0,11.0,55,-99.99,,,0.21,meteohub,2013-03-02 19:07:00,
2013-03-02 14:12:00,30.6,16.0,29.91,WNW,292,7.0,11.0,54,-99.99,,,0.21,meteohub,2013-03-02 19:12:00,
2013-03-02 14:17:00,30.6,16.3,29.88,WNW,292,5.0,10.0,55,-99.99,,,0.21,meteohub,2013-03-02 19:17:00,
2013-03-02 14:22:00,30.2,16.3,29.88,NNW,338,8.0,10.0,56,-99.99,,,0.21,meteohub,2013-03-02 19:22:00,
2013-03-02 14:27:00,30.4,17.1,29.88,WNW,292,4.0,11.0,57,-99.99,,,0.21,meteohub,2013-03-02 19:27:00,
2013-03-02 14:32:00,30.0,16.7,29.88,NNW,338,6.0,11.0,57,-99.99,,,0.21,meteohub,2013-03-02 19:32:00,
2013-03-02 14:37:00,29.5,16.9,29.88,WNW,292,8.0,11.0,59,-99.99,,,0.21,meteohub,2013-03-02 19:37:00,
2013-03-02 14:42:00,28.9,16.9,29.89,WSW,248,8.0,12.0,60,-99.99,,,0.21,meteohub,2013-03-02 19:42:00,
2013-03-02 14:47:00,28.8,16.7,29.89,NW,315,8.0,12.0,60,-99.99,,,0.21,meteohub,2013-03-02 19:47:00,
2013-03-02 14:52:00,28.9,17.2,29.89,WNW,292,4.0,14.0,61,-99.99,,,0.21,meteohub,2013-03-02 19:52:00,
2013-03-02 14:57:00,28.8,16.3,29.89,WNW,292,4.0,14.0,59,-99.99,,,0.21,meteohub,2013-03-02 19:57:00,
2013-03-02 15:02:00,28.6,16.2,29.89,NW,315,9.0,14.0,59,-99.99,,,0.21,meteohub,2013-03-02 20:02:00,
2013-03-02 15:07:00,28.2,15.8,29.89,WNW,292,6.0,14.0,59,-99.99,,,0.21,meteohub,2013-03-02 20:07:00,
2013-03-02 15:12:00,28.2,16.2,29.89,NW,315,6.0,14.0,60,-99.99,,,0.21,meteohub,2013-03-02 20:12:00,
2013-03-02 15:17:00,28.0,16.7,29.90,WNW,292,6.0,14.0,62,-99.99,,,0.21,meteohub,2013-03-02 20:17:00,
2013-03-02 15:22:00,27.9,16.5,29.90,NNW,338,4.0,11.0,62,-99.99,,,0.21,meteohub,2013-03-02 20:22:00,
2013-03-02 15:27:00,27.7,16.7,29.90,NNW,338,6.0,13.0,63,-99.99,,,0.21,meteohub,2013-03-02 20:27:00,
2013-03-02 15:32:00,27.9,16.9,29.90,WNW,292,6.0,15.0,63,-99.99,,,0.21,meteohub,2013-03-02 20:32:00,
2013-03-02 15:37:00,27.9,16.9,29.90,North,0,7.0,15.0,63,-99.99,,,0.21,meteohub,2013-03-02 20:37:00,
2013-03-02 15:42:00,28.0,16.7,29.90,North,0,6.0,15.0,62,-99.99,,,0.21,meteohub,2013-03-02 20:42:00,
2013-03-02 15:47:00,29.3,17.6,29.88,WNW,292,4.0,10.0,61,-99.99,,,0.21,meteohub,2013-03-02 20:47:00,
2013-03-02 15:52:00,29.7,16.7,29.88,NW,315,5.0,9.0,58,-99.99,,,0.21,meteohub,2013-03-02 20:52:00,
2013-03-02 15:57:00,29.5,16.2,29.88,NW,315,4.0,9.0,57,-99.99,,,0.21,meteohub,2013-03-02 20:57:00,
2013-03-02 16:02:00,29.5,16.2,29.88,NNE,22,6.0,9.0,57,-99.99,,,0.21,meteohub,2013-03-02 21:02:00,
2013-03-02 16:07:00,29.5,15.3,29.88,WNW,292,5.0,9.0,55,-99.99,,,0.21,meteohub,2013-03-02 21:07:00,
2013-03-02 16:12:00,28.9,15.3,29.89,West,270,6.0,10.0,56,-99.99,,,0.21,meteohub,2013-03-02 21:12:00,
2013-03-02 16:17:00,28.4,15.6,29.89,SE,135,4.0,10.0,58,-99.99,,,0.21,meteohub,2013-03-02 21:17:00,
2013-03-02 16:22:00,28.0,15.3,29.90,NW,315,6.0,10.0,58,-99.99,,,0.21,meteohub,2013-03-02 21:22:00,
2013-03-02 16:27:00,28.4,15.6,29.89,North,0,4.0,10.0,58,-99.99,,,0.21,meteohub,2013-03-02 21:27:00,
2013-03-02 16:32:00,28.6,14.9,29.89,NNW,338,6.0,13.0,56,-99.99,,,0.21,meteohub,2013-03-02 21:32:00,
2013-03-02 16:37:00,28.0,13.6,29.90,WNW,292,4.0,13.0,54,-99.99,,,0.21,meteohub,2013-03-02 21:37:00,
2013-03-02 16:42:00,27.7,13.6,29.90,NW,315,8.0,11.0,55,-99.99,,,0.21,meteohub,2013-03-02 21:42:00,
2013-03-02 16:47:00,27.1,13.6,29.91,NNW,338,6.0,11.0,56,-99.99,,,0.21,meteohub,2013-03-02 21:47:00,
2013-03-02 16:52:00,27.0,13.5,29.91,NNW,338,8.0,15.0,56,-99.99,,,0.21,meteohub,2013-03-02 21:52:00,
2013-03-02 16:57:00,26.6,13.5,29.91,NW,315,10.0,15.0,57,-99.99,,,0.21,meteohub,2013-03-02 21:57:00,
2013-03-02 17:02:00,26.2,13.1,29.91,NW,315,11.0,15.0,57,-99.99,,,0.21,meteohub,2013-03-02 22:02:00,
2013-03-02 17:07:00,26.2,13.5,29.91,NW,315,5.0,13.0,58,-99.99,,,0.21,meteohub,2013-03-02 22:07:00,
2013-03-02 17:12:00,26.1,12.9,29.91,NW,315,7.0,11.0,57,-99.99,,,0.21,meteohub,2013-03-02 22:12:00,
2013-03-02 17:17:00,25.7,12.6,29.92,NW,315,6.0,15.0,57,-99.99,,,0.21,meteohub,2013-03-02 22:17:00,
2013-03-02 17:22:00,25.5,12.4,29.92,NW,315,5.0,15.0,57,-99.99,,,0.21,meteohub,2013-03-02 22:22:00,
2013-03-02 17:27:00,25.3,13.1,29.92,NW,315,3.0,15.0,59,-99.99,,,0.21,meteohub,2013-03-02 22:27:00,
2013-03-02 17:32:00,25.3,13.1,29.96,WNW,292,6.0,13.0,59,-99.99,,,0.21,meteohub,2013-03-02 22:32:00,
2013-03-02 17:37:00,25.0,14.2,29.96,WNW,292,7.0,13.0,63,-99.99,,,0.21,meteohub,2013-03-02 22:37:00,
2013-03-02 17:42:00,24.8,14.7,29.96,NW,315,6.0,10.0,65,-99.99,,,0.21,meteohub,2013-03-02 22:42:00,
2013-03-02 17:47:00,24.4,15.1,29.96,NW,315,8.0,9.0,67,-99.99,,,0.21,meteohub,2013-03-02 22:47:00,
2013-03-02 17:52:00,24.3,13.8,29.96,NNW,338,6.0,9.0,64,-99.99,,,0.21,meteohub,2013-03-02 22:52:00,
2013-03-02 17:57:00,24.1,14.0,29.96,WNW,292,3.0,10.0,65,-99.99,,,0.21,meteohub,2013-03-02 22:57:00,
2013-03-02 18:02:00,23.9,12.4,29.93,NNW,338,4.0,10.0,61,-99.99,,,0.21,meteohub,2013-03-02 23:02:00,
2013-03-02 18:07:00,23.7,12.2,29.94,NW,315,5.0,13.0,61,-99.99,,,0.21,meteohub,2013-03-02 23:07:00,
2013-03-02 18:12:00,23.5,13.1,29.94,WNW,292,7.0,13.0,64,-99.99,,,0.21,meteohub,2013-03-02 23:12:00,
2013-03-02 18:17:00,23.4,13.3,29.97,WNW,292,7.0,13.0,65,-99.99,,,0.21,meteohub,2013-03-02 23:17:00,
2013-03-02 18:22:00,23.2,13.8,29.97,NW,315,6.0,10.0,67,-99.99,,,0.21,meteohub,2013-03-02 23:22:00,
2013-03-02 18:27:00,23.0,13.6,29.98,WNW,292,6.0,10.0,67,-99.99,,,0.21,meteohub,2013-03-02 23:27:00,
2013-03-02 18:32:00,23.0,13.6,29.98,NW,315,7.0,11.0,67,-99.99,,,0.21,meteohub,2013-03-02 23:32:00,
2013-03-02 18:37:00,22.8,13.8,29.98,WNW,292,7.0,11.0,68,-99.99,,,0.21,meteohub,2013-03-02 23:37:00,
2013-03-02 18:42:00,22.8,14.2,29.98,WNW,292,6.0,11.0,69,-99.99,,,0.21,meteohub,2013-03-02 23:42:00,
2013-03-02 18:47:00,22.8,14.5,29.98,WSW,248,9.0,10.0,70,-99.99,,,0.21,meteohub,2013-03-02 23:47:00,
2013-03-02 18:52:00,22.6,14.7,29.98,NW,315,9.0,10.0,71,-99.99,,,0.21,meteohub,2013-03-02 23:52:00,
2013-03-02 18:57:00,22.5,15.1,29.98,WNW,292,5.0,11.0,73,-99.99,,,0.21,meteohub,2013-03-02 23:57:00,
2013-03-02 19:02:00,22.3,15.6,29.98,WNW,292,6.0,11.0,75,-99.99,,,0.21,meteohub,2013-03-03 00:02:00,
2013-03-02 19:07:00,22.3,15.8,29.98,NW,315,6.0,11.0,76,-99.99,,,0.21,meteohub,2013-03-03 00:07:00,
2013-03-02 19:12:00,22.3,15.3,29.98,WNW,292,5.0,10.0,74,-99.99,,,0.21,meteohub,2013-03-03 00:12:00,
2013-03-02 19:17:00,22.3,14.9,29.98,WNW,292,4.0,12.0,73,-99.99,,,0.21,meteohub,2013-03-03 00:17:00,
2013-03-02 19:22:00,22.3,15.3,29.98,NNW,338,7.0,12.0,74,-99.99,,,0.21,meteohub,2013-03-03 00:22:00,
2013-03-02 19:27:00,22.1,14.7,29.98,NW,315,7.0,12.0,73,-99.99,,,0.21,meteohub,2013-03-03 00:27:00,
2013-03-02 19:32:00,22.1,14.5,29.98,WNW,292,6.0,13.0,72,-99.99,,,0.21,meteohub,2013-03-03 00:32:00,
2013-03-02 19:37:00,21.9,14.0,29.99,NW,315,10.0,13.0,71,-99.99,,,0.21,meteohub,2013-03-03 00:37:00,
2013-03-02 19:42:00,21.9,14.0,29.99,NNW,338,13.0,16.0,71,-99.99,,,0.21,meteohub,2013-03-03 00:42:00,
2013-03-02 19:47:00,21.9,13.6,29.99,WNW,292,6.0,16.0,70,-99.99,,,0.21,meteohub,2013-03-03 00:47:00,
2013-03-02 19:52:00,21.9,13.6,29.99,NW,315,5.0,15.0,70,-99.99,,,0.21,meteohub,2013-03-03 00:52:00,
2013-03-02 19:57:00,21.7,13.1,29.99,WNW,292,9.0,15.0,69,-99.99,,,0.21,meteohub,2013-03-03 00:57:00,
2013-03-02 20:02:00,21.6,13.3,29.99,NNW,338,7.0,14.0,70,-99.99,,,0.21,meteohub,2013-03-03 01:02:00,
2013-03-02 20:07:00,21.6,13.3,29.99,West,270,8.0,14.0,70,-99.99,,,0.21,meteohub,2013-03-03 01:07:00,
2013-03-02 20:12:00,21.6,12.7,29.99,West,270,7.0,15.0,68,-99.99,,,0.21,meteohub,2013-03-03 01:12:00,
2013-03-02 20:17:00,21.4,12.7,29.99,NNW,338,10.0,15.0,69,-99.99,,,0.21,meteohub,2013-03-03 01:17:00,
2013-03-02 20:22:00,21.4,12.7,29.99,WNW,292,8.0,15.0,69,-99.99,,,0.21,meteohub,2013-03-03 01:22:00,
2013-03-02 20:28:00,21.4,13.1,29.99,WNW,292,8.0,13.0,70,-99.99,,,0.21,meteohub,2013-03-03 01:28:00,
2013-03-02 20:33:00,21.4,13.1,29.99,NW,315,8.0,13.0,70,-99.99,,,0.21,meteohub,2013-03-03 01:33:00,
2013-03-02 20:38:00,21.2,13.6,29.99,NW,315,10.0,15.0,72,-99.99,,,0.21,meteohub,2013-03-03 01:38:00,
2013-03-02 20:43:00,21.2,14.0,29.99,NNW,338,14.0,15.0,73,-99.99,,,0.21,meteohub,2013-03-03 01:43:00,
2013-03-02 20:48:00,21.0,14.0,29.99,WNW,292,11.0,15.0,74,-99.99,,,0.21,meteohub,2013-03-03 01:48:00,
2013-03-02 20:53:00,20.8,13.6,29.99,NW,315,6.0,15.0,73,-99.99,,,0.21,meteohub,2013-03-03 01:53:00,
2013-03-02 20:58:00,20.8,12.9,29.99,NW,315,14.0,15.0,71,-99.99,,,0.21,meteohub,2013-03-03 01:58:00,
2013-03-02 21:03:00,20.7,12.4,30.00,NW,315,15.0,21.0,70,-99.99,,,0.21,meteohub,2013-03-03 02:03:00,
2013-03-02 21:08:00,20.7,12.4,30.00,NNW,338,11.0,21.0,70,-99.99,,,0.21,meteohub,2013-03-03 02:08:00,
2013-03-02 21:13:00,20.7,12.2,30.00,WNW,292,15.0,21.0,69,-99.99,,,0.21,meteohub,2013-03-03 02:13:00,
2013-03-02 21:18:00,20.5,11.7,30.00,NNW,338,11.0,20.0,68,-99.99,,,0.21,meteohub,2013-03-03 02:18:00,
2013-03-02 21:23:00,20.5,11.3,30.00,NW,315,10.0,22.0,67,-99.99,,,0.21,meteohub,2013-03-03 02:23:00,
2013-03-02 21:28:00,20.3,11.1,30.00,NNW,338,9.0,22.0,67,-99.99,,,0.21,meteohub,2013-03-03 02:28:00,
2013-03-02 21:33:00,20.3,11.5,30.00,WNW,292,12.0,22.0,68,-99.99,,,0.21,meteohub,2013-03-03 02:33:00,
2013-03-02 21:38:00,20.3,11.1,30.00,NW,315,13.0,20.0,67,-99.99,,,0.21,meteohub,2013-03-03 02:38:00,
2013-03-02 21:43:00,20.3,10.8,30.00,NW,315,11.0,15.0,66,-99.99,,,0.21,meteohub,2013-03-03 02:43:00,
2013-03-02 21:48:00,20.3,11.5,30.00,NW,315,9.0,17.0,68,-99.99,,,0.21,meteohub,2013-03-03 02:48:00,
2013-03-02 21:53:00,20.1,10.9,30.00,WNW,292,16.0,17.0,67,-99.99,,,0.21,meteohub,2013-03-03 02:53:00,
2013-03-02 21:58:00,20.1,10.9,30.00,WNW,292,7.0,15.0,67,-99.99,,,0.21,meteohub,2013-03-03 02:58:00,
2013-03-02 22:07:00,19.9,10.4,30.00,NW,315,8.0,16.0,66,-99.99,,,0.21,meteohub,2013-03-03 03:07:00,
2013-03-02 22:12:00,19.8,9.9,30.00,WNW,292,12.0,15.0,65,-99.99,,,0.21,meteohub,2013-03-03 03:12:00,
2013-03-02 22:17:00,19.8,9.9,30.00,WNW,292,6.0,15.0,65,-99.99,,,0.21,meteohub,2013-03-03 03:17:00,
2013-03-02 22:22:00,19.8,9.5,30.00,NNW,338,10.0,16.0,64,-99.99,,,0.21,meteohub,2013-03-03 03:22:00,
2013-03-02 22:27:00,19.6,9.3,30.01,NW,315,7.0,18.0,64,-99.99,,,0.21,meteohub,2013-03-03 03:27:00,
2013-03-02 22:32:00,19.6,10.0,30.01,WNW,292,7.0,18.0,66,-99.99,,,0.21,meteohub,2013-03-03 03:32:00,
2013-03-02 22:37:00,19.6,10.4,30.01,NW,315,11.0,13.0,67,-99.99,,,0.21,meteohub,2013-03-03 03:37:00,
2013-03-02 22:42:00,19.4,10.6,30.01,NW,315,6.0,13.0,68,-99.99,,,0.21,meteohub,2013-03-03 03:42:00,
2013-03-02 22:47:00,19.2,11.1,30.01,North,0,8.0,15.0,70,-99.99,,,0.21,meteohub,2013-03-03 03:47:00,
2013-03-02 22:52:00,19.2,10.8,30.01,NNW,338,11.0,15.0,69,-99.99,,,0.21,meteohub,2013-03-03 03:52:00,
2013-03-02 22:57:00,19.0,9.9,30.01,NW,315,10.0,14.0,67,-99.99,,,0.21,meteohub,2013-03-03 03:57:00,
2013-03-02 23:02:00,19.0,9.9,30.01,NW,315,9.0,14.0,67,-99.99,,,0.21,meteohub,2013-03-03 04:02:00,
2013-03-02 23:07:00,18.9,10.0,30.01,WNW,292,6.0,14.0,68,-99.99,,,0.21,meteohub,2013-03-03 04:07:00,
2013-03-02 23:12:00,18.9,10.4,30.01,NW,315,8.0,13.0,69,-99.99,,,0.21,meteohub,2013-03-03 04:12:00,
2013-03-02 23:17:00,18.7,10.6,30.01,South,180,10.0,13.0,70,-99.99,,,0.21,meteohub,2013-03-03 04:17:00,
2013-03-02 23:22:00,18.5,9.7,30.01,NNW,338,6.0,13.0,68,-99.99,,,0.21,meteohub,2013-03-03 04:22:00,
2013-03-02 23:27:00,18.5,9.3,30.01,NW,315,8.0,14.0,67,-99.99,,,0.21,meteohub,2013-03-03 04:27:00,
2013-03-02 23:32:00,18.5,9.1,30.01,NW,315,12.0,19.0,66,-99.99,,,0.21,meteohub,2013-03-03 04:32:00,
2013-03-02 23:37:00,18.5,8.8,30.01,NW,315,8.0,19.0,65,-99.99,,,0.21,meteohub,2013-03-03 04:37:00,
2013-03-02 23:42:00,18.3,9.0,30.02,WNW,292,8.0,19.0,66,-99.99,,,0.21,meteohub,2013-03-03 04:42:00,
2013-03-02 23:47:00,18.3,8.6,30.02,WNW,292,7.0,18.0,65,-99.99,,,0.21,meteohub,2013-03-03 04:47:00,
2013-03-02 23:52:00,18.3,8.6,30.02,WNW,292,12.0,15.0,65,-99.99,,,0.21,meteohub,2013-03-03 04:52:00,
2013-03-02 23:57:00,18.3,9.0,30.02,WNW,292,7.0,15.0,66,-99.99,,,0.21,meteohub,2013-03-03 04:57:00,